createdAt,value
2018-09-27T00:01:35.014Z,6.40
2018-09-27T00:04:02.698Z,6.40
2018-09-27T00:06:30.352Z,6.40
2018-09-27T00:08:57.979Z,6.50
2018-09-27T00:11:25.629Z,6.40
2018-09-27T00:13:53.254Z,6.40
2018-09-27T00:16:20.897Z,6.40
2018-09-27T00:18:48.551Z,6.40
2018-09-27T00:21:16.206Z,6.40
2018-09-27T00:23:43.869Z,6.30
2018-09-27T00:26:11.546Z,6.30
2018-09-27T00:28:39.225Z,6.20
2018-09-27T00:31:06.909Z,6.20
2018-09-27T00:33:34.598Z,6.20
2018-09-27T00:36:02.286Z,6.10
2018-09-27T00:38:30.017Z,6.10
2018-09-27T00:40:57.711Z,6.10
2018-09-27T00:43:25.388Z,6.10
2018-09-27T00:45:53.055Z,6.10
2018-09-27T00:48:20.725Z,6.10
2018-09-27T00:50:48.275Z,6.10
2018-09-27T00:53:15.984Z,6.00
2018-09-27T00:55:43.504Z,5.90
2018-09-27T00:58:11.045Z,5.90
2018-09-27T01:00:38.905Z,5.90
2018-09-27T01:03:06.741Z,5.80
2018-09-27T01:05:34.799Z,5.80
2018-09-27T01:08:02.432Z,5.80
2018-09-27T01:10:29.961Z,5.70
2018-09-27T01:12:57.505Z,5.70
2018-09-27T01:15:25.040Z,5.60
2018-09-27T01:17:52.582Z,5.60
2018-09-27T01:20:20.205Z,5.60
2018-09-27T01:22:47.764Z,5.60
2018-09-27T01:25:15.543Z,5.60
2018-09-27T01:27:43.061Z,5.50
2018-09-27T01:30:10.648Z,5.50
2018-09-27T01:32:38.215Z,5.50
2018-09-27T01:35:06.056Z,5.50
2018-09-27T01:37:33.588Z,5.50
2018-09-27T01:40:01.332Z,5.50
2018-09-27T01:42:28.866Z,5.50
2018-09-27T01:44:56.391Z,5.50
2018-09-27T01:47:23.919Z,5.50
2018-09-27T01:49:51.475Z,5.50
2018-09-27T01:52:19.025Z,5.50
2018-09-27T01:54:46.536Z,5.50
2018-09-27T01:57:14.137Z,5.50
2018-09-27T01:59:41.677Z,5.50
2018-09-27T02:02:09.216Z,5.50
2018-09-27T02:04:36.859Z,5.50
2018-09-27T02:07:04.552Z,5.50
2018-09-27T02:09:32.088Z,5.50
2018-09-27T02:11:59.648Z,5.50
2018-09-27T02:14:27.166Z,5.40
2018-09-27T02:16:54.651Z,5.40
2018-09-27T02:19:22.194Z,5.50
2018-09-27T02:21:49.764Z,5.40
2018-09-27T02:24:17.294Z,5.40
2018-09-27T02:26:44.777Z,5.40
2018-09-27T02:29:12.348Z,5.40
2018-09-27T02:31:39.973Z,5.30
2018-09-27T02:34:07.494Z,5.30
2018-09-27T02:36:34.991Z,5.30
2018-09-27T02:39:03.289Z,5.30
2018-09-27T02:41:30.813Z,5.20
2018-09-27T02:43:58.315Z,5.20
2018-09-27T02:46:25.829Z,5.20
2018-09-27T02:48:53.388Z,5.10
2018-09-27T02:51:20.923Z,5.00
2018-09-27T02:53:48.517Z,5.00
2018-09-27T02:56:16.106Z,4.90
2018-09-27T02:58:43.611Z,5.00
2018-09-27T03:01:11.211Z,4.90
2018-09-27T03:03:38.774Z,4.90
2018-09-27T03:06:06.598Z,4.90
2018-09-27T03:08:34.157Z,4.90
2018-09-27T03:11:01.719Z,4.90
2018-09-27T03:13:29.236Z,4.90
2018-09-27T03:15:56.808Z,4.90
2018-09-27T03:18:24.343Z,4.90
2018-09-27T03:23:26.869Z,4.90
2018-09-27T03:25:54.843Z,4.90
2018-09-27T03:28:22.823Z,4.90
2018-09-27T03:30:50.318Z,4.90
2018-09-27T03:33:17.808Z,4.90
2018-09-27T03:35:45.387Z,4.90
2018-09-27T03:38:12.983Z,4.90
2018-09-27T03:40:40.662Z,4.90
2018-09-27T03:43:08.148Z,4.90
2018-09-27T03:45:36.326Z,4.90
2018-09-27T03:48:03.816Z,4.90
2018-09-27T03:50:31.574Z,4.90
2018-09-27T03:52:59.092Z,4.90
2018-09-27T03:55:26.576Z,4.90
2018-09-27T03:57:54.245Z,4.90
2018-09-27T04:00:21.755Z,4.90
2018-09-27T04:02:49.272Z,4.90
2018-09-27T04:05:16.796Z,4.90
2018-09-27T04:07:44.443Z,4.90
2018-09-27T04:10:12.025Z,4.80
2018-09-27T04:12:39.615Z,4.80
2018-09-27T04:15:07.637Z,4.80
2018-09-27T04:17:35.203Z,4.80
2018-09-27T04:20:02.937Z,4.70
2018-09-27T04:22:30.423Z,4.70
2018-09-27T04:24:58.342Z,4.70
2018-09-27T04:27:25.848Z,4.60
2018-09-27T04:29:53.463Z,4.60
2018-09-27T04:32:21.058Z,4.60
2018-09-27T04:34:48.618Z,4.60
2018-09-27T04:37:16.164Z,4.50
2018-09-27T04:39:43.769Z,4.50
2018-09-27T04:42:11.360Z,4.50
2018-09-27T04:44:39.408Z,4.50
2018-09-27T04:47:06.872Z,4.50
2018-09-27T04:49:34.376Z,4.50
2018-09-27T04:52:01.947Z,4.50
2018-09-27T04:54:29.548Z,4.50
2018-09-27T04:56:56.985Z,4.50
2018-09-27T04:59:24.541Z,4.40
2018-09-27T05:01:53.048Z,4.30
2018-09-27T05:04:20.613Z,4.30
2018-09-27T05:06:48.155Z,4.30
2018-09-27T05:09:15.800Z,4.30
2018-09-27T05:11:43.298Z,4.30
2018-09-27T05:14:10.781Z,4.40
2018-09-27T05:16:38.687Z,4.40
2018-09-27T05:19:06.547Z,4.40
2018-09-27T05:21:34.132Z,4.40
2018-09-27T05:24:01.710Z,4.50
2018-09-27T05:26:29.262Z,4.50
2018-09-27T05:28:56.842Z,4.50
2018-09-27T05:31:24.364Z,4.50
2018-09-27T05:33:51.978Z,4.50
2018-09-27T05:36:19.593Z,4.60
2018-09-27T05:38:47.136Z,4.60
2018-09-27T05:41:14.754Z,4.60
2018-09-27T05:43:42.240Z,4.70
2018-09-27T05:46:09.779Z,4.80
2018-09-27T05:48:43.949Z,5.30
2018-09-27T05:51:11.481Z,5.90
2018-09-27T05:53:39.011Z,6.70
2018-09-27T05:56:06.599Z,7.40
2018-09-27T05:58:34.136Z,8.10
2018-09-27T06:01:01.952Z,8.80
2018-09-27T06:03:29.807Z,9.40
2018-09-27T06:05:57.344Z,9.70
2018-09-27T06:08:24.904Z,10.30
2018-09-27T06:10:52.474Z,10.70
2018-09-27T06:13:20.132Z,10.90
2018-09-27T06:15:47.915Z,11.30
2018-09-27T06:18:15.536Z,11.80
2018-09-27T06:20:43.028Z,11.90
2018-09-27T06:23:10.497Z,12.20
2018-09-27T06:25:38.008Z,12.40
2018-09-27T06:28:05.532Z,12.80
2018-09-27T06:30:33.152Z,13.20
2018-09-27T06:33:00.743Z,13.50
2018-09-27T06:35:28.250Z,14.10
2018-09-27T06:37:55.713Z,14.90
2018-09-27T06:40:23.548Z,15.10
2018-09-27T06:42:51.047Z,15.20
2018-09-27T06:45:18.590Z,15.40
2018-09-27T06:47:46.048Z,15.80
2018-09-27T06:50:13.576Z,15.90
2018-09-27T06:52:41.062Z,16.10
2018-09-27T06:55:08.742Z,16.40
2018-09-27T06:57:36.048Z,16.60
2018-09-27T07:00:03.657Z,16.90
2018-09-27T07:02:31.168Z,17.30
2018-09-27T07:04:58.685Z,17.90
2018-09-27T07:07:26.167Z,18.00
2018-09-27T07:09:53.657Z,18.10
2018-09-27T07:12:21.379Z,18.70
2018-09-27T07:14:48.753Z,19.20
2018-09-27T07:17:16.321Z,19.50
2018-09-27T07:19:43.840Z,19.80
2018-09-27T07:22:11.348Z,20.50
2018-09-27T07:24:38.919Z,20.90
2018-09-27T07:27:06.414Z,21.10
2018-09-27T07:29:33.930Z,21.50
2018-09-27T07:32:01.447Z,21.80
2018-09-27T07:34:28.928Z,22.20
2018-09-27T07:36:56.406Z,22.50
2018-09-27T07:39:23.885Z,22.80
2018-09-27T07:41:51.379Z,23.20
2018-09-27T07:44:18.899Z,23.40
2018-09-27T07:46:46.380Z,23.80
2018-09-27T07:49:13.942Z,24.00
2018-09-27T07:51:41.457Z,24.30
2018-09-27T07:54:09.007Z,24.60
2018-09-27T07:56:36.448Z,24.80
2018-09-27T07:59:03.987Z,25.00
2018-09-27T08:01:31.546Z,25.20
2018-09-27T08:03:59.076Z,25.50
2018-09-27T08:06:26.623Z,25.70
2018-09-27T08:08:54.101Z,25.80
2018-09-27T08:11:21.800Z,26.20
2018-09-27T08:13:49.178Z,26.40
2018-09-27T08:16:17.001Z,26.90
2018-09-27T08:18:44.496Z,27.10
2018-09-27T08:21:12.059Z,27.40
2018-09-27T08:23:39.473Z,27.50
2018-09-27T08:26:06.997Z,27.60
2018-09-27T08:28:34.499Z,27.90
2018-09-27T08:31:02.061Z,27.70
2018-09-27T08:33:29.573Z,27.80
2018-09-27T08:35:57.046Z,28.10
2018-09-27T08:38:24.652Z,28.00
2018-09-27T08:40:52.157Z,27.90
2018-09-27T08:43:19.631Z,28.60
2018-09-27T08:45:47.265Z,28.60
2018-09-27T08:48:14.761Z,29.20
2018-09-27T08:50:42.292Z,29.50
2018-09-27T08:53:09.869Z,29.70
2018-09-27T08:55:37.413Z,30.00
2018-09-27T08:58:05.086Z,30.50
2018-09-27T09:00:32.636Z,30.80
2018-09-27T09:03:00.179Z,30.40
2018-09-27T09:05:27.734Z,30.10
2018-09-27T09:07:55.283Z,30.10
2018-09-27T09:10:22.815Z,29.70
2018-09-27T09:12:50.392Z,30.30
2018-09-27T09:15:17.971Z,30.20
2018-09-27T09:17:45.513Z,30.50
2018-09-27T09:20:13.072Z,31.00
2018-09-27T09:22:40.611Z,31.00
2018-09-27T09:25:08.159Z,31.50
2018-09-27T09:27:35.739Z,31.40
2018-09-27T09:30:03.350Z,30.60
2018-09-27T09:32:30.968Z,30.80
2018-09-27T09:34:58.529Z,30.90
2018-09-27T09:37:26.085Z,30.10
2018-09-27T09:39:53.660Z,30.00
2018-09-27T09:42:21.216Z,30.90
2018-09-27T09:44:48.752Z,31.70
2018-09-27T09:47:16.401Z,31.80
2018-09-27T09:49:43.952Z,30.90
2018-09-27T09:52:11.517Z,31.50
2018-09-27T09:54:39.093Z,31.80
2018-09-27T09:57:06.866Z,32.20
2018-09-27T09:59:34.468Z,32.70
2018-09-27T10:02:01.989Z,32.90
2018-09-27T10:04:29.556Z,32.50
2018-09-27T10:06:57.105Z,32.10
2018-09-27T10:09:24.664Z,31.70
2018-09-27T10:11:52.175Z,31.80
2018-09-27T10:14:19.781Z,32.40
2018-09-27T10:16:47.353Z,32.90
2018-09-27T10:19:14.901Z,32.70
2018-09-27T10:21:42.498Z,33.00
2018-09-27T10:24:10.064Z,33.20
2018-09-27T10:26:37.640Z,32.40
2018-09-27T10:29:05.202Z,32.80
2018-09-27T10:31:32.781Z,33.10
2018-09-27T10:34:00.481Z,33.20
2018-09-27T10:36:29.033Z,32.80
2018-09-27T10:38:56.610Z,32.00
2018-09-27T10:41:24.176Z,32.50
2018-09-27T10:43:51.730Z,32.90
2018-09-27T10:46:19.347Z,33.10
2018-09-27T10:48:46.909Z,33.20
2018-09-27T10:51:14.488Z,33.00
2018-09-27T10:53:42.100Z,32.70
2018-09-27T10:56:09.694Z,32.60
2018-09-27T10:58:37.221Z,33.50
2018-09-27T11:01:04.848Z,34.10
2018-09-27T11:03:32.394Z,34.60
2018-09-27T11:06:00.213Z,35.10
2018-09-27T11:08:27.773Z,35.30
2018-09-27T11:10:55.382Z,35.00
2018-09-27T11:13:22.872Z,35.20
2018-09-27T11:15:50.413Z,35.70
2018-09-27T11:18:18.105Z,36.10
2018-09-27T11:20:45.623Z,36.00
2018-09-27T11:23:13.148Z,35.80
2018-09-27T11:25:40.748Z,36.10
2018-09-27T11:28:08.350Z,35.80
2018-09-27T11:30:35.869Z,35.70
2018-09-27T11:33:03.478Z,35.60
2018-09-27T11:35:30.991Z,35.90
2018-09-27T11:37:58.573Z,35.70
2018-09-27T11:40:26.853Z,35.90
2018-09-27T11:42:54.465Z,36.10
2018-09-27T11:45:21.949Z,36.60
2018-09-27T11:47:49.523Z,36.10
2018-09-27T11:50:17.104Z,35.50
2018-09-27T11:52:44.629Z,35.90
2018-09-27T11:55:12.248Z,35.60
2018-09-27T11:57:39.737Z,36.00
2018-09-27T12:00:07.886Z,36.40
2018-09-27T12:02:35.509Z,36.50
2018-09-27T12:05:03.236Z,36.60
2018-09-27T12:07:31.269Z,36.50
2018-09-27T12:09:58.800Z,36.40
2018-09-27T12:12:26.377Z,36.50
2018-09-27T12:14:54.658Z,37.00
2018-09-27T12:17:22.232Z,37.20
2018-09-27T12:19:49.832Z,37.60
2018-09-27T12:22:17.401Z,37.50
2018-09-27T12:24:44.952Z,36.70
2018-09-27T12:27:12.577Z,35.00
2018-09-27T12:29:40.144Z,35.20
2018-09-27T12:32:07.712Z,35.90
2018-09-27T12:34:35.335Z,36.40
2018-09-27T12:37:02.931Z,36.60
2018-09-27T12:39:30.564Z,35.90
2018-09-27T12:41:58.194Z,35.80
2018-09-27T12:44:25.600Z,34.40
2018-09-27T12:46:53.296Z,34.60
2018-09-27T12:49:20.801Z,35.50
2018-09-27T12:51:48.428Z,35.30
2018-09-27T12:54:16.059Z,35.00
2018-09-27T12:56:43.605Z,35.70
2018-09-27T12:59:11.125Z,35.90
2018-09-27T13:01:38.723Z,35.40
2018-09-27T13:04:06.320Z,35.80
2018-09-27T13:06:33.917Z,35.80
2018-09-27T13:09:01.596Z,36.20
2018-09-27T13:11:29.060Z,36.30
2018-09-27T13:13:56.561Z,36.60
2018-09-27T13:16:24.241Z,36.50
2018-09-27T13:18:51.830Z,36.60
2018-09-27T13:21:19.395Z,35.10
2018-09-27T13:23:46.976Z,34.50
2018-09-27T13:26:14.560Z,34.70
2018-09-27T13:28:42.297Z,34.10
2018-09-27T13:31:09.916Z,34.80
2018-09-27T13:33:37.448Z,34.70
2018-09-27T13:36:05.134Z,34.70
2018-09-27T13:38:32.841Z,35.30
2018-09-27T13:41:00.409Z,36.20
2018-09-27T13:43:27.933Z,36.70
2018-09-27T13:45:55.472Z,36.70
2018-09-27T13:48:23.012Z,36.40
2018-09-27T13:50:50.788Z,36.70
2018-09-27T13:53:18.325Z,36.10
2018-09-27T13:55:45.872Z,35.50
2018-09-27T13:58:13.389Z,36.50
2018-09-27T14:00:40.962Z,36.60
2018-09-27T14:03:08.532Z,37.30
2018-09-27T14:05:36.122Z,37.60
2018-09-27T14:08:03.633Z,37.00
2018-09-27T14:10:31.209Z,36.80
2018-09-27T14:12:58.757Z,36.90
2018-09-27T14:15:26.298Z,37.20
2018-09-27T14:17:53.839Z,36.80
2018-09-27T14:20:21.388Z,36.40
2018-09-27T14:22:48.939Z,35.50
2018-09-27T14:25:16.568Z,35.20
2018-09-27T14:27:44.157Z,34.90
2018-09-27T14:30:11.706Z,35.70
2018-09-27T14:32:39.260Z,35.90
2018-09-27T14:35:06.808Z,36.20
2018-09-27T14:37:34.386Z,36.30
2018-09-27T14:40:01.948Z,36.30
2018-09-27T14:42:29.510Z,36.50
2018-09-27T14:44:57.325Z,36.40
2018-09-27T14:47:24.937Z,35.20
2018-09-27T14:49:52.515Z,34.70
2018-09-27T14:52:20.175Z,34.90
2018-09-27T14:54:47.779Z,34.30
2018-09-27T14:57:15.570Z,34.20
2018-09-27T14:59:43.197Z,33.90
2018-09-27T15:02:10.874Z,33.90
2018-09-27T15:04:38.311Z,33.70
2018-09-27T15:07:05.938Z,33.20
2018-09-27T15:09:33.543Z,33.80
2018-09-27T15:12:01.185Z,34.00
2018-09-27T15:14:28.838Z,34.40
2018-09-27T15:16:56.398Z,34.20
2018-09-27T15:19:23.988Z,34.00
2018-09-27T15:21:51.618Z,34.30
2018-09-27T15:24:19.224Z,34.40
2018-09-27T15:26:46.898Z,34.10
2018-09-27T15:29:14.499Z,33.60
2018-09-27T15:31:42.129Z,33.10
2018-09-27T15:34:09.883Z,33.50
2018-09-27T15:36:37.547Z,33.50
2018-09-27T15:39:06.404Z,33.70
2018-09-27T15:41:34.023Z,34.00
2018-09-27T15:44:01.700Z,33.70
2018-09-27T15:46:29.407Z,33.90
2018-09-27T15:48:57.198Z,34.10
2018-09-27T15:51:24.900Z,34.00
2018-09-27T15:53:52.454Z,34.00
2018-09-27T15:56:20.109Z,33.70
2018-09-27T15:58:47.685Z,33.70
2018-09-27T16:01:15.382Z,33.50
2018-09-27T16:03:43.018Z,33.20
2018-09-27T16:06:10.778Z,33.00
2018-09-27T16:08:38.485Z,32.80
2018-09-27T16:11:06.313Z,32.80
2018-09-27T16:13:34.043Z,32.60
2018-09-27T16:16:01.688Z,32.60
2018-09-27T16:18:29.286Z,32.20
2018-09-27T16:20:56.885Z,32.10
2018-09-27T16:23:24.507Z,31.90
2018-09-27T16:25:52.074Z,31.70
2018-09-27T16:28:19.748Z,31.40
2018-09-27T16:30:47.449Z,31.20
2018-09-27T16:33:15.356Z,30.90
2018-09-27T16:35:43.041Z,30.60
2018-09-27T16:38:10.898Z,30.10
2018-09-27T16:40:38.567Z,29.60
2018-09-27T16:43:06.381Z,28.70
2018-09-27T16:45:34.574Z,27.90
2018-09-27T16:48:02.315Z,27.30
2018-09-27T16:50:30.248Z,27.00
2018-09-27T16:52:58.218Z,26.50
2018-09-27T16:55:25.856Z,25.70
2018-09-27T16:57:53.507Z,24.80
2018-09-27T17:00:21.302Z,23.90
2018-09-27T17:02:48.874Z,23.00
2018-09-27T17:05:16.512Z,22.40
2018-09-27T17:07:44.124Z,22.00
2018-09-27T17:10:11.726Z,21.50
2018-09-27T17:12:39.276Z,21.00
2018-09-27T17:15:07.572Z,20.60
2018-09-27T17:17:41.779Z,20.20
2018-09-27T17:20:09.369Z,19.90
2018-09-27T17:22:36.985Z,19.60
2018-09-27T17:25:04.833Z,19.30
2018-09-27T17:27:32.412Z,19.00
2018-09-27T17:30:00.056Z,18.70
2018-09-27T17:32:27.668Z,18.50
2018-09-27T17:34:55.349Z,18.20
2018-09-27T17:37:22.966Z,18.00
2018-09-27T17:39:50.498Z,17.80
2018-09-27T17:42:18.044Z,17.60
2018-09-27T17:44:45.647Z,17.50
2018-09-27T17:47:13.223Z,17.40
2018-09-27T17:49:40.831Z,17.20
2018-09-27T17:52:08.532Z,17.00
2018-09-27T17:54:36.156Z,17.00
2018-09-27T17:57:03.769Z,16.90
2018-09-27T17:59:31.376Z,16.90
2018-09-27T18:01:58.970Z,16.70
2018-09-27T18:04:26.653Z,16.50
2018-09-27T18:06:54.170Z,16.40
2018-09-27T18:09:21.764Z,16.20
2018-09-27T18:11:49.372Z,16.00
2018-09-27T18:14:16.983Z,15.80
2018-09-27T18:16:44.611Z,15.70
2018-09-27T18:19:12.200Z,15.50
2018-09-27T18:21:40.063Z,15.40
2018-09-27T18:24:07.691Z,15.30
2018-09-27T18:26:35.307Z,15.10
2018-09-27T18:29:03.253Z,15.10
2018-09-27T18:31:30.979Z,15.00
2018-09-27T18:33:58.521Z,14.80
2018-09-27T18:36:26.109Z,14.60
2018-09-27T18:38:53.935Z,14.40
2018-09-27T18:41:21.511Z,14.30
2018-09-27T18:43:49.075Z,14.20
2018-09-27T18:46:16.878Z,14.10
2018-09-27T18:48:44.464Z,14.00
2018-09-27T18:51:12.976Z,13.90
2018-09-27T18:53:40.563Z,13.80
2018-09-27T18:56:08.300Z,13.70
2018-09-27T18:58:35.886Z,13.60
2018-09-27T19:01:03.481Z,13.50
2018-09-27T19:03:31.083Z,13.50
2018-09-27T19:05:59.387Z,13.40
2018-09-27T19:08:26.990Z,13.30
2018-09-27T19:10:54.676Z,13.20
2018-09-27T19:13:22.169Z,13.10
2018-09-27T19:15:49.802Z,13.00
2018-09-27T19:18:17.430Z,13.00
2018-09-27T19:20:45.054Z,12.90
2018-09-27T19:23:12.625Z,12.80
2018-09-27T19:25:40.187Z,12.80
2018-09-27T19:28:07.756Z,12.70
2018-09-27T19:30:35.333Z,12.70
2018-09-27T19:33:02.939Z,12.60
2018-09-27T19:35:30.500Z,12.50
2018-09-27T19:37:58.033Z,12.50
2018-09-27T19:40:25.601Z,12.40
2018-09-27T19:42:53.141Z,12.30
2018-09-27T19:45:20.664Z,12.30
2018-09-27T19:47:48.249Z,12.20
2018-09-27T19:50:15.912Z,12.10
2018-09-27T19:52:43.489Z,12.00
2018-09-27T19:55:12.048Z,11.90
2018-09-27T19:57:39.727Z,11.90
2018-09-27T20:00:07.377Z,11.90
2018-09-27T20:02:34.946Z,11.80
2018-09-27T20:05:02.529Z,11.80
2018-09-27T20:07:30.089Z,11.70
2018-09-27T20:09:57.696Z,11.70
2018-09-27T20:12:25.256Z,11.70
2018-09-27T20:14:52.798Z,11.70
2018-09-27T20:17:20.350Z,11.60
2018-09-27T20:19:48.117Z,11.60
2018-09-27T20:22:16.641Z,11.50
2018-09-27T20:24:44.173Z,11.40
2018-09-27T20:27:11.754Z,11.40
2018-09-27T20:29:39.445Z,11.30
2018-09-27T20:32:06.960Z,11.20
2018-09-27T20:34:34.595Z,11.20
2018-09-27T20:37:03.170Z,11.20
2018-09-27T20:39:31.530Z,11.10
2018-09-27T20:41:59.146Z,11.10
2018-09-27T20:44:26.893Z,11.00
2018-09-27T20:46:55.087Z,11.00
2018-09-27T20:49:22.701Z,10.90
2018-09-27T20:51:50.313Z,10.90
2018-09-27T20:54:17.929Z,10.90
2018-09-27T20:56:45.486Z,10.90
2018-09-27T20:59:13.153Z,10.80
2018-09-27T21:01:40.664Z,10.70
2018-09-27T21:04:08.168Z,10.70
2018-09-27T21:06:35.666Z,10.60
2018-09-27T21:09:04.510Z,10.60
2018-09-27T21:11:32.076Z,10.50
2018-09-27T21:13:59.583Z,10.50
2018-09-27T21:16:27.237Z,10.40
2018-09-27T21:18:54.743Z,10.40
2018-09-27T21:21:22.291Z,10.30
2018-09-27T21:23:50.103Z,10.30
2018-09-27T21:26:17.732Z,10.20
2018-09-27T21:28:45.297Z,10.20
2018-09-27T21:31:12.809Z,10.20
2018-09-27T21:33:40.360Z,10.20
2018-09-27T21:36:07.961Z,10.10
2018-09-27T21:38:35.475Z,10.00
2018-09-27T21:41:02.983Z,10.00
2018-09-27T21:43:30.519Z,9.90
2018-09-27T21:45:58.054Z,9.90
2018-09-27T21:48:25.558Z,9.80
2018-09-27T21:50:53.073Z,9.80
2018-09-27T21:53:20.673Z,9.80
2018-09-27T21:55:48.167Z,9.80
2018-09-27T21:58:15.781Z,9.80
2018-09-27T22:00:43.348Z,9.70
2018-09-27T22:03:10.849Z,9.70
2018-09-27T22:05:38.425Z,9.60
2018-09-27T22:08:05.933Z,9.60
2018-09-27T22:10:33.463Z,9.50
2018-09-27T22:13:00.993Z,9.50
2018-09-27T22:15:28.500Z,9.50
2018-09-27T22:17:56.030Z,9.50
2018-09-27T22:20:23.810Z,9.50
2018-09-27T22:22:51.374Z,9.50
2018-09-27T22:25:18.928Z,9.50
2018-09-27T22:27:46.474Z,9.50
2018-09-27T22:30:13.984Z,9.40
2018-09-27T22:32:41.492Z,9.40
2018-09-27T22:35:09.013Z,9.40
2018-09-27T22:37:36.502Z,9.40
2018-09-27T22:40:04.280Z,9.30
2018-09-27T22:42:31.807Z,9.30
2018-09-27T22:44:59.343Z,9.30
2018-09-27T22:47:26.850Z,9.30
2018-09-27T22:49:54.373Z,9.30
2018-09-27T22:52:22.012Z,9.30
2018-09-27T22:54:49.603Z,9.30
2018-09-27T22:57:17.167Z,9.20
2018-09-27T22:59:44.672Z,9.20
2018-09-27T23:02:12.268Z,9.10
2018-09-27T23:04:39.783Z,9.10
2018-09-27T23:07:07.383Z,9.10
2018-09-27T23:09:34.915Z,9.10
2018-09-27T23:12:02.421Z,9.00
2018-09-27T23:14:29.928Z,8.90
2018-09-27T23:16:57.431Z,8.90
2018-09-27T23:19:24.972Z,8.90
2018-09-27T23:21:52.511Z,8.80
2018-09-27T23:24:20.035Z,8.80
2018-09-27T23:26:47.510Z,8.80
2018-09-27T23:29:15.049Z,8.80
2018-09-27T23:31:42.537Z,8.80
2018-09-27T23:34:10.037Z,8.70
2018-09-27T23:36:37.552Z,8.70
2018-09-27T23:39:06.407Z,8.70
2018-09-27T23:41:33.893Z,8.70
2018-09-27T23:44:01.434Z,8.70
2018-09-27T23:46:28.956Z,8.60
2018-09-27T23:48:56.507Z,8.60
2018-09-27T23:51:24.078Z,8.60
2018-09-27T23:53:51.648Z,8.60
2018-09-27T23:56:19.152Z,8.60
2018-09-27T23:58:46.711Z,8.60
